Flight Track Log - Related Links

Times and Time Zones

All times are in EDT time to prevent confusion due to time zone crossing. See the AAL2007 flight status page for this flight to view local times or setup timezone preferences in your user account.

Time Position Orientation Groundspeed Altitude Reporting Facility
EDT Latitude Longitude Course Direction KTS MPH feet Rate Location/Type
Mon 08:34:29 PM 41.9833 -87.8667 114° Southeast 168 193 1,900  Level Chicago TRACON
Mon 08:35:29 PM 41.9667 -87.8167 114° Southeast 213 245 3,700 1,558 Climbing Chicago TRACON
Mon 08:36:13 PM 41.9231 -87.8125 176° South 219 252 4,600 1,358 Climbing Chicago Center
Mon 08:37:15 PM 41.8497 -87.8064 176° South 263 303 6,100 2,177 Climbing Chicago Center
Mon 08:38:17 PM 41.7733 -87.8289 192° South 280 322 9,100 2,952 Climbing Chicago Center
Mon 08:39:19 PM 41.6919 -87.9025 214° Southwest 295 339 12,200 2,468 Climbing Chicago Center
Mon 08:40:21 PM 41.6214 -87.9714 216° Southwest 313 360 14,200 1,597 Climbing Chicago Center
Mon 08:41:23 PM 41.5483 -88.0411 216° Southwest 324 373 15,500 1,403 Climbing Chicago Center
Mon 08:42:25 PM 41.4719 -88.1164 216° Southwest 350 403 17,100 1,742 Climbing Chicago Center
Mon 08:43:27 PM 41.3683 -88.1986 211° Southwest 388 447 19,100 1,742 Climbing Chicago Center
Mon 08:44:29 PM 41.2614 -88.2456 198° South 412 474 20,700 1,824 Climbing Chicago Center
Mon 08:45:32 PM 41.1519 -88.2950 199° South 418 481 22,900 1,824 Climbing Chicago Center
Mon 08:46:34 PM 41.0464 -88.3528 202° Southwest 415 478 24,500 1,694 Climbing Chicago Center
Mon 08:47:36 PM 40.9406 -88.4736 221° Southwest 420 483 26,400 1,548 Climbing Chicago Center
Mon 08:48:38 PM 40.8497 -88.5717 219° Southwest 423 487 27,700 871 Climbing Chicago Center
Mon 08:49:40 PM 40.7625 -88.6667 220° Southwest 412 474 28,200 1,210 Climbing Chicago Center
Mon 08:50:42 PM 40.6775 -88.7569 219° Southwest 399 459 30,200 1,694 Climbing Chicago Center
Mon 08:51:44 PM 40.5839 -88.8569 219° Southwest 387 445 31,700 871 Climbing Chicago Center
Mon 08:52:46 PM 40.5000 -88.9439 218° Southwest 383 441 32,000 145 Climbing Chicago Center
Mon 08:53:48 PM 40.4169 -89.0311 219° Southwest 381 438 32,000  Level Chicago Center
Mon 08:54:50 PM 40.3325 -89.1192 218° Southwest 385 443 32,000  Level Chicago Center
Mon 08:55:52 PM 40.2483 -89.2075 219° Southwest 386 444 32,000  Level Chicago Center
Mon 08:56:54 PM 40.1644 -89.2950 219° Southwest 386 444 32,000  Level Chicago Center
Mon 08:57:28 PM 40.1144 -89.3483 219° Southwest 383 441 32,000  Level Kansas City Center
Mon 08:58:30 PM 40.0294 -89.4367 219° Southwest 387 445 32,000  Level Kansas City Center
Mon 08:59:31 PM 39.9439 -89.5253 218° Southwest 390 449 32,000  Level Kansas City Center
Mon 09:00:33 PM 39.8408 -89.6317 218° Southwest 391 450 32,000  Level Kansas City Center
Mon 09:01:35 PM 39.7558 -89.7186 218° Southwest 389 448 32,000  Level Kansas City Center
Mon 09:02:36 PM 39.6794 -89.7978 219° Southwest 389 448 32,000 244 Level Kansas City Center
Mon 09:03:38 PM 39.5947 -89.8831 218° Southwest 387 445 32,500 581 Climbing Kansas City Center
Mon 09:04:40 PM 39.4942 -89.9853 218° Southwest 385 443 33,200 634 Climbing Kansas City Center
Mon 09:05:41 PM 39.4097 -90.0722 219° Southwest 387 445 33,800 390 Climbing Kansas City Center
Mon 09:06:43 PM 39.3242 -90.1581 218° Southwest 390 449 34,000 98 Climbing Kansas City Center
Mon 09:07:44 PM 39.2372 -90.2444 218° Southwest 394 453 34,000  Level Kansas City Center
Mon 09:08:46 PM 39.1519 -90.3325 219° Southwest 394 453 34,000  Level Kansas City Center
Mon 09:09:48 PM 39.0661 -90.4183 218° Southwest 394 453 34,000  Level Kansas City Center
Mon 09:10:49 PM 38.9794 -90.5053 218° Southwest 398 458 34,000  Level Kansas City Center
Mon 09:11:51 PM 38.8842 -90.6003 218° Southwest 398 458 34,000  Level Kansas City Center
Mon 09:12:52 PM 38.7878 -90.6944 217° Southwest 402 463 34,000  Level Kansas City Center
Mon 09:13:54 PM 38.6997 -90.7814 218° Southwest 404 465 34,000  Level Kansas City Center
Mon 09:14:56 PM 38.6117 -90.8658 217° Southwest 400 460 34,000  Level Kansas City Center
Mon 09:15:57 PM 38.5222 -90.9558 218° Southwest 407 468 34,000  Level Kansas City Center
Mon 09:16:59 PM 38.4161 -91.0583 217° Southwest 402 463 34,000  Level Kansas City Center
Mon 09:18:00 PM 38.3264 -91.1453 217° Southwest 405 466 34,000  Level Kansas City Center
Mon 09:19:02 PM 38.2358 -91.2317 217° Southwest 406 467 34,000  Level Kansas City Center
Mon 09:20:04 PM 38.1467 -91.3194 218° Southwest 408 470 34,000  Level Kansas City Center
Mon 09:21:05 PM 38.0592 -91.4050 218° Southwest 402 463 34,000  Level Kansas City Center
Mon 09:22:07 PM 37.9700 -91.4914 217° Southwest 401 461 34,000  Level Kansas City Center
Mon 09:23:09 PM 37.8792 -91.5781 217° Southwest 402 463 34,000  Level Kansas City Center
Mon 09:24:10 PM 37.7692 -91.6822 217° Southwest 406 467 34,000  Level Kansas City Center
Mon 09:25:12 PM 37.6797 -91.7675 217° Southwest 402 463 34,000  Level Kansas City Center
Mon 09:26:13 PM 37.5903 -91.8536 217° Southwest 401 461 34,000  Level Kansas City Center
Mon 09:27:15 PM 37.5003 -91.9397 217° Southwest 403 464 34,000  Level Kansas City Center
Mon 09:28:17 PM 37.4097 -92.0244 217° Southwest 402 463 34,000  Level Kansas City Center
Mon 09:29:18 PM 37.3208 -92.1089 217° Southwest 400 460 34,000  Level Kansas City Center
Mon 09:30:20 PM 37.2303 -92.1906 216° Southwest 399 459 34,000  Level Kansas City Center
Mon 09:32:23 PM 37.0494 -92.3589 217° Southwest 401 461 34,000  Level Kansas City Center
Mon 09:33:25 PM 36.9572 -92.4464 217° Southwest 409 471 34,000  Level Kansas City Center
Mon 09:34:26 PM 36.8656 -92.5322 217° Southwest 411 473 34,000  Level Kansas City Center
Mon 09:35:28 PM 36.7539 -92.6344 216° Southwest 413 475 34,000  Level Kansas City Center
Mon 09:36:29 PM 36.6619 -92.7200 217° Southwest 412 474 34,000  Level Kansas City Center
Mon 09:37:31 PM 36.5744 -92.7997 216° Southwest 411 473 34,000  Level Kansas City Center
Mon 09:38:31 PM 36.4747 -92.8964 218° Southwest 419 482 34,000  Level Memphis Center
Mon 09:39:34 PM 36.3897 -92.9689 214° Southwest 415 478 34,000  Level Kansas City Center
Mon 09:40:31 PM 36.2900 -93.0581 216° Southwest 414 476 34,000  Level Memphis Center
Mon 09:41:31 PM 36.2050 -93.1350 216° Southwest 421 484 34,000  Level Memphis Center
Mon 09:42:31 PM 36.1153 -93.2217 218° Southwest 421 484 34,000  Level Memphis Center
Mon 09:43:31 PM 36.0217 -93.3006 214° Southwest 421 484 34,000  Level Memphis Center
Mon 09:44:31 PM 35.9300 -93.3844 217° Southwest 416 479 34,000  Level Memphis Center
Mon 09:45:31 PM 35.8406 -93.4683 217° Southwest 416 479 34,000  Level Memphis Center
Mon 09:46:31 PM 35.7467 -93.5467 214° Southwest 416 479 34,000  Level Memphis Center
Mon 09:47:31 PM 35.6569 -93.6300 217° Southwest 416 479 34,000  Level Memphis Center
Mon 09:48:31 PM 35.5631 -93.7131 216° Southwest 416 479 34,000  Level Memphis Center
Mon 09:49:31 PM 35.4711 -93.7936 216° Southwest 416 479 34,000  Level Memphis Center
Mon 09:50:31 PM 35.3792 -93.8764 216° Southwest 416 479 34,000  Level Memphis Center
Mon 09:51:31 PM 35.2892 -93.9564 216° Southwest 416 479 34,000  Level Memphis Center
Mon 09:52:31 PM 35.1931 -94.0389 215° Southwest 416 479 34,000  Level Memphis Center
Mon 09:53:31 PM 35.1031 -94.1186 216° Southwest 416 479 34,000  Level Memphis Center
Mon 09:54:31 PM 35.0067 -94.1981 214° Southwest 416 479 34,000  Level Memphis Center
Mon 09:56:49 PM 34.8003 -94.3892 217° Southwest 410 472 34,000  Level Fort Worth Center
Mon 09:57:49 PM 34.7042 -94.4683 214° Southwest 415 478 34,000  Level Fort Worth Center
Mon 09:58:49 PM 34.6122 -94.5472 215° Southwest 415 478 34,000  Level Fort Worth Center
Mon 09:59:49 PM 34.5161 -94.6286 215° Southwest 422 486 34,000  Level Fort Worth Center
Mon 10:00:49 PM 34.4117 -94.7200 216° Southwest 422 486 34,000  Level Fort Worth Center
Mon 10:01:49 PM 34.3172 -94.8008 215° Southwest 422 486 34,000  Level Fort Worth Center
Mon 10:02:49 PM 34.2208 -94.8817 215° Southwest 422 486 34,000  Level Fort Worth Center
Mon 10:03:49 PM 34.1222 -94.9625 214° Southwest 422 486 34,000  Level Fort Worth Center
Mon 10:04:49 PM 34.0281 -95.0453 216° Southwest 422 486 34,000  Level Fort Worth Center
Mon 10:05:49 PM 33.9292 -95.1281 215° Southwest 422 486 34,000  Level Fort Worth Center
Mon 10:06:49 PM 33.8328 -95.2081 215° Southwest 422 486 34,000  Level Fort Worth Center
Mon 10:07:49 PM 33.7381 -95.2903 216° Southwest 422 486 34,000  Level Fort Worth Center
Mon 10:08:49 PM 33.6414 -95.3700 214° Southwest 422 486 34,000  Level Fort Worth Center
Mon 10:09:49 PM 33.5444 -95.4519 215° Southwest 422 486 34,000  Level Fort Worth Center
Mon 10:10:49 PM 33.4456 -95.5314 214° Southwest 422 486 34,000  Level Fort Worth Center
Mon 10:11:49 PM 33.3611 -95.6028 215° Southwest 428 493 34,000  Level Fort Worth Center
Mon 10:12:49 PM 33.2619 -95.6819 214° Southwest 422 486 34,000  Level Fort Worth Center
Mon 10:13:49 PM 33.1650 -95.7631 215° Southwest 422 486 34,000  Level Fort Worth Center
Mon 10:14:49 PM 33.0636 -95.8469 215° Southwest 427 491 34,000  Level Fort Worth Center
Mon 10:15:49 PM 32.9686 -95.9278 216° Southwest 432 497 34,000  Level Fort Worth Center
Mon 10:16:49 PM 32.8672 -96.0086 214° Southwest 432 497 34,000  Level Fort Worth Center
Mon 10:17:49 PM 32.7681 -96.0892 214° Southwest 437 503 34,000  Level Fort Worth Center
Mon 10:18:49 PM 32.6667 -96.1747 215° Southwest 437 503 34,000  Level Fort Worth Center
Mon 10:19:49 PM 32.5650 -96.2547 214° Southwest 442 509 34,000  Level Fort Worth Center
Mon 10:20:49 PM 32.4675 -96.3325 214° Southwest 442 509 34,000  Level Fort Worth Center
Mon 10:21:49 PM 32.3639 -96.4172 215° Southwest 447 514 34,000  Level Fort Worth Center
Mon 10:22:49 PM 32.2644 -96.4994 215° Southwest 447 514 34,000  Level Fort Worth Center
Mon 10:23:49 PM 32.1542 -96.5864 214° Southwest 447 514 34,000  Level Fort Worth Center
Mon 10:24:49 PM 32.0525 -96.6683 214° Southwest 442 509 34,000  Level Fort Worth Center
Mon 10:25:49 PM 31.9547 -96.7475 214° Southwest 447 514 34,000 -850 Level Fort Worth Center
Mon 10:26:49 PM 31.8611 -96.8164 212° Southwest 440 506 32,300 -1,906 Descending Fort Worth Center
Mon 10:27:14 PM 31.8067 -96.8433 203° Southwest 440 506 31,300 -2,233 Descending Houston Center
Mon 10:28:15 PM 31.6958 -96.9128 208° Southwest 446 513 29,100 -2,146 Descending Houston Center
Mon 10:29:17 PM 31.5822 -96.9822 208° Southwest 453 521 26,900 -2,146 Descending Houston Center
Mon 10:30:18 PM 31.4686 -97.0525 208° Southwest 456 525 24,700 -2,164 Descending Houston Center
Mon 10:31:19 PM 31.3578 -97.1192 207° Southwest 446 513 22,500 -2,213 Descending Houston Center
Mon 10:32:20 PM 31.2464 -97.1806 205° Southwest 440 506 20,200 -2,195 Descending Houston Center
Mon 10:33:22 PM 31.1286 -97.2278 199° South 442 509 18,000 -1,756 Descending Houston Center
Mon 10:34:23 PM 31.0158 -97.2767 200° South 434 499 16,600 -1,525 Descending Houston Center
Mon 10:35:24 PM 30.9022 -97.3256 200° South 393 452 14,900 -1,918 Descending Houston Center
Mon 10:36:25 PM 30.8089 -97.3647 200° South 364 419 12,700 -1,707 Descending Houston Center
Mon 10:37:27 PM 30.7308 -97.4278 215° Southwest 344 396 11,400 -1,268 Descending Houston Center
Mon 10:38:28 PM 30.6650 -97.4936 221° Southwest 316 364 10,100 -1,328 Descending Houston Center
Mon 10:39:29 PM 30.6025 -97.5597 222° Southwest 304 350 8,700 -1,268 Descending Houston Center
Mon 10:40:31 PM 30.5428 -97.6236 223° Southwest 294 338 7,500 -1,317 Descending Houston Center
Mon 10:41:32 PM 30.4886 -97.6856 225° Southwest 278 320 6,000 -1,131 Descending Houston Center
Mon 10:42:33 PM 30.4203 -97.6883 182° South 249 287 5,200 -787 Descending Houston Center

Login

Don't have an account? Register now (free) for customized features, flight alerts, and more!